Flight Track Log - Related Links

Times and Time Zones

All times are in EDT time to prevent confusion due to time zone crossing. See the CTL14 flight status page for this flight to view local times or setup timezone preferences in your user account.

Time Position Orientation Groundspeed Altitude Reporting Facility
EDT Latitude Longitude Course Direction KTS MPH feet Rate Location/Type
Mon 09:21:56 PM 39.2833 -85.9000 360° North 115 132 1,100  Level Indianapolis TRACON
Mon 09:22:20 PM 39.2833 -85.9000 346° North 126 145 1,500 846 Climbing Indianapolis TRACON
Mon 09:23:14 PM 39.3219 -85.9125 346° North 138 159 2,200 783 Climbing Indianapolis Center
Mon 09:24:15 PM 39.3625 -85.9183 354° North 143 165 3,000 780 Climbing Indianapolis Center
Mon 09:25:17 PM 39.3897 -85.9547 314° West 149 171 3,800 488 Climbing Indianapolis Center
Mon 09:26:18 PM 39.4081 -86.0017 297° West 147 169 4,000 146 Climbing Indianapolis Center
Mon 09:27:20 PM 39.4175 -86.0639 281° West 169 194 4,100  Climbing Indianapolis Center
Mon 09:28:21 PM 39.4331 -86.1350 286° West 171 197 4,000 -49 Descending Indianapolis Center
Mon 09:29:22 PM 39.4461 -86.1950 286° West 172 198 4,000  Level Indianapolis Center
Mon 09:30:24 PM 39.4603 -86.2542 287° West 172 198 4,000 34 Level Indianapolis Center
Mon 09:32:20 PM 39.5000 -86.3667 295° West 171 197 4,100 34 Climbing Indianapolis TRACON
Mon 09:33:20 PM 39.5333 -86.4167 311° West 171 197 4,100  Level Indianapolis TRACON
Mon 09:34:20 PM 39.5500 -86.4667 293° West 172 198 4,100  Level Indianapolis TRACON
Mon 09:35:26 PM 39.5667 -86.5333 288° West 173 199 4,100  Level Indianapolis TRACON
Mon 09:36:20 PM 39.5833 -86.5833 293° West 174 200 4,100 47 Level Indianapolis TRACON
Mon 09:37:34 PM 39.6150 -86.6414 305° West 174 200 4,200  Climbing Indianapolis Center
Mon 09:38:35 PM 39.6414 -86.7086 297° West 174 200 4,100 -49 Descending Indianapolis Center
Mon 09:39:36 PM 39.6622 -86.7647 296° West 174 200 4,100  Level Indianapolis Center
Mon 09:40:38 PM 39.6836 -86.8208 296° West 174 200 4,100 -49 Level Indianapolis Center
Mon 09:41:39 PM 39.7047 -86.8772 296° West 173 199 4,000  Descending Indianapolis Center
Mon 09:42:41 PM 39.7258 -86.9336 296° West 174 200 4,100 49 Climbing Indianapolis Center
Mon 09:43:42 PM 39.7469 -86.9894 296° West 173 199 4,100  Level Indianapolis Center
Mon 09:44:43 PM 39.7692 -87.0447 298° West 173 199 4,100  Level Indianapolis Center
Mon 09:45:45 PM 39.7908 -87.1003 297° West 173 199 4,100  Level Indianapolis Center
Mon 09:46:46 PM 39.8122 -87.1572 296° West 174 200 4,100  Level Indianapolis Center
Mon 09:47:48 PM 39.8331 -87.2144 295° West 175 201 4,100  Level Indianapolis Center
Mon 09:48:49 PM 39.8586 -87.2831 296° West 175 201 4,100  Level Indianapolis Center
Mon 09:49:50 PM 39.8794 -87.3400 296° West 175 201 4,100  Level Indianapolis Center
Mon 09:50:52 PM 39.9000 -87.3961 296° West 174 200 4,100  Level Indianapolis Center
Mon 09:51:53 PM 39.9217 -87.4531 296° West 174 200 4,100  Level Indianapolis Center
Mon 09:52:54 PM 39.9422 -87.5097 295° West 174 200 4,100 49 Level Indianapolis Center
Mon 09:53:56 PM 39.9622 -87.5653 295° West 172 198 4,200 49 Climbing Indianapolis Center
Mon 09:54:57 PM 39.9833 -87.6261 294° West 171 197 4,200 -29 Level Indianapolis Center
Mon 09:57:21 PM 40.0328 -87.7483 298° West 164 189 4,100 -29 Descending Chicago Center
Mon 09:58:23 PM 40.0525 -87.8050 294° West 166 191 4,100  Level Chicago Center
Mon 09:59:25 PM 40.0800 -87.8717 298° West 171 197 4,100  Level Chicago Center
Mon 10:00:27 PM 40.0986 -87.9267 294° West 169 194 4,100  Level Chicago Center
Mon 10:01:30 PM 40.1233 -87.9778 302° West 168 193 4,100  Level Chicago Center
Mon 10:02:31 PM 40.1478 -88.0297 302° West 169 194 4,100  Level Chicago Center
Mon 10:03:33 PM 40.1708 -88.0889 297° West 173 199 4,100  Level Chicago Center
Mon 10:04:35 PM 40.1944 -88.1536 296° West 169 194 4,100  Level Chicago Center
Mon 10:05:37 PM 40.2147 -88.2097 295° West 171 197 4,100 -48 Level Chicago Center
Mon 10:06:39 PM 40.2342 -88.2658 294° West 170 196 4,000 -48 Descending Chicago Center
Mon 10:07:41 PM 40.2536 -88.3208 295° West 168 193 4,000  Level Chicago Center
Mon 10:08:43 PM 40.2722 -88.3772 293° West 168 193 4,000  Level Chicago Center
Mon 10:09:44 PM 40.2903 -88.4328 293° West 168 193 4,000  Level Chicago Center
Mon 10:10:46 PM 40.3139 -88.4994 295° West 168 193 4,000 48 Level Chicago Center
Mon 10:11:48 PM 40.3314 -88.5469 296° West 169 194 4,100 -194 Climbing Chicago Center
Mon 10:12:50 PM 40.3578 -88.6150 297° West 173 199 3,600 -439 Descending Chicago Center
Mon 10:13:51 PM 40.3822 -88.6742 298° West 182 209 3,200 -341 Descending Chicago Center
Mon 10:14:53 PM 40.4058 -88.7275 300° West 176 203 2,900 -290 Descending Chicago Center
Mon 10:15:55 PM 40.4286 -88.7808 299° West 170 196 2,600 -341 Descending Chicago Center
Mon 10:16:56 PM 40.4517 -88.8297 302° West 163 188 2,200 -488 Descending Chicago Center
Mon 10:17:58 PM 40.4708 -88.8756 299° West 155 178 1,600 -581 Descending Chicago Center
Mon 10:19:00 PM 40.4778 -88.9086 285° West 118 136 1,000 -581 Descending Chicago Center
Mon 10:20:00 PM 40.4771 -88.9159 90° East  Level Estimated
Mon 10:27:00 PM 40.4771 -88.9159 90° East  Level Estimated
Mon 10:28:00 PM 40.4771 -88.9159 90° East  Level Estimated

Login

Don't have an account? Register now (free) for customized features, flight alerts, and more!